Bassetts Creek, Alabama
Current Conditions -  °F | °C
As of 1:56 PM on Wednesday 28 Jan 2015 (Local Time) from KMOB Reporting Station
Clear Clear  
Wind Chill: 65°   Ceiling: Unl
Heat Index: 65°   Visibility: 10mi
Dew Point: 24°   Wind: 6mph
Humidity: 21%   Direction: 350°N
Pressure: 30.23"   Gusts: NA
Location:  31.3942°N, 88.065°W
Report Text: KMOB 281956Z 35005KT 10SM CLR 18/M04 A3023 RMK AO2 SLP234 T01831044
Loading
Personal Weather Stations






























Interactive Weather Map New forecast layout! Learn more

10-Day Weather Forecast

Advertisements
Track Severe Weather on mobile